Clarks, Texas
Current Conditions -  °F | °C
As of 5:15 PM on Thursday 27 Nov 2014 (Local Time) from KPKV Reporting Station
Clear Clear  
Wind Chill: 59°   Ceiling: Unl
Heat Index: 59°   Visibility: 10mi
Dew Point: 46°   Wind: 9mph
Humidity: 62%   Direction: 120°ESE
Pressure: 30.41"   Gusts: NA
Location:  28.5342°N, 96.663°W
Report Text: KPKV 272315Z AUTO 12008KT 10SM CLR 15/08 A3041 RMK AO2 T01510079
Loading
Personal Weather Stations






























Interactive Weather Map New forecast layout! Learn more

10-Day Weather Forecast

Advertisements
Track Severe Weather on mobile